Time;durP1;ratioP1;P1;durP2;ratioP2;P2;SDS_P1;SDS_P2;PMS_P1;PMS_P2;Temp;Humidity;BMP_temperature;BMP_pressure;BME280_temperature;BME280_humidity;BME280_pressure;Samples;Min_cycle;Max_cycle;Signal;HPM_P1;HPM_P2
2022/05/05 00:01:21;;;;;;;1.17;0.78;;;;;;;8.28;39.51;100964.35;1787952;80;21027;-59
2022/05/05 00:03:52;;;;;;;1.20;0.80;;;;;;;8.27;39.68;100963.16;1788425;80;21044;-60
2022/05/05 00:06:21;;;;;;;1.50;0.80;;;;;;;8.22;39.72;100961.45;1788214;79;21043;-60
2022/05/05 00:08:51;;;;;;;2.30;0.93;;;;;;;8.17;39.79;100966.56;1788102;80;21062;-59
2022/05/05 00:17:07;;;;;;;3.70;0.80;;;;;;;8.06;39.78;100975.92;1788485;80;21008;-59
2022/05/05 00:19:41;;;;;;;2.27;0.95;;;;;;;8.08;39.75;100977.13;1788068;80;21467;-59
2022/05/05 00:22:10;;;;;;;2.05;1.15;;;;;;;8.06;39.70;100975.92;1788240;80;20999;-59
2022/05/05 00:24:39;;;;;;;1.22;0.90;;;;;;;8.04;40.06;100986.16;1788018;80;21031;-59
2022/05/05 00:27:08;;;;;;;3.25;1.07;;;;;;;8.03;40.03;100990.41;1788090;80;21212;-60
2022/05/05 00:29:37;;;;;;;2.42;1.10;;;;;;;8.00;39.93;100991.60;1788287;80;21020;-60
2022/05/05 00:32:07;;;;;;;2.12;0.80;;;;;;;7.97;40.07;100993.80;1788228;80;21038;-59
2022/05/05 00:34:38;;;;;;;3.83;0.90;;;;;;;7.98;39.77;100998.25;1787994;80;21031;-60
2022/05/05 00:37:08;;;;;;;2.77;1.10;;;;;;;7.99;39.71;100984.44;1787982;80;20996;-60
2022/05/05 00:39:38;;;;;;;1.62;1.00;;;;;;;7.98;39.70;100996.87;1788398;80;21011;-58
2022/05/05 00:42:11;;;;;;;2.42;0.90;;;;;;;7.95;39.75;101003.02;1788078;80;21039;-59
2022/05/05 00:44:41;;;;;;;2.92;1.10;;;;;;;7.94;40.08;101003.18;1788364;80;21498;-60
2022/05/05 00:47:16;;;;;;;3.08;1.10;;;;;;;7.88;39.87;101004.70;1787920;79;21027;-59
2022/05/05 00:49:49;;;;;;;3.10;0.80;;;;;;;7.86;39.90;100998.55;1787999;79;20996;-64
2022/05/05 00:52:19;;;;;;;4.28;1.10;;;;;;;7.86;40.15;101006.73;1788468;80;21081;-59
2022/05/05 00:54:48;;;;;;;1.77;0.90;;;;;;;7.86;39.93;100997.19;1788417;80;21012;-65
2022/05/05 00:57:17;;;;;;;4.45;1.12;;;;;;;7.86;40.03;101004.52;1788439;80;20972;-58
2022/05/05 00:59:46;;;;;;;4.33;1.00;;;;;;;7.84;39.83;101008.77;1788403;80;21074;-58
2022/05/05 01:02:16;;;;;;;1.40;0.90;;;;;;;7.81;39.90;101008.25;1788135;80;21067;-59
2022/05/05 01:04:47;;;;;;;2.98;1.07;;;;;;;7.82;39.83;101006.72;1788180;79;21043;-59
2022/05/05 01:07:16;;;;;;;1.67;0.85;;;;;;;7.78;40.30;101010.77;1788503;80;21075;-58
2022/05/05 01:09:45;;;;;;;2.98;0.90;;;;;;;7.77;40.10;101017.75;1770911;80;21055;-58
2022/05/05 01:12:14;;;;;;;1.80;0.90;;;;;;;7.75;40.21;101014.34;1788260;80;21031;-61
2022/05/05 01:14:44;;;;;;;2.70;1.10;;;;;;;7.75;40.17;101012.46;1788161;80;21039;-60
2022/05/05 01:17:14;;;;;;;2.52;0.90;;;;;;;7.74;40.34;101020.30;1788381;80;21023;-58
2022/05/05 01:19:44;;;;;;;2.22;0.85;;;;;;;7.73;40.27;101021.32;1788482;80;21032;-60
2022/05/05 01:22:17;;;;;;;2.00;0.88;;;;;;;7.70;40.67;101017.55;1788192;80;21432;-59
2022/05/05 01:30:22;;;;;;;1.95;0.93;;;;;;;7.56;40.76;101025.84;1788266;80;21051;-60
2022/05/05 01:32:51;;;;;;;2.12;1.00;;;;;;;7.52;40.86;101025.83;1788208;80;21004;-60
2022/05/05 01:35:20;;;;;;;3.33;0.90;;;;;;;7.48;41.18;101029.89;1784858;80;21024;-59
2022/05/05 01:37:49;;;;;;;3.12;1.02;;;;;;;7.47;41.47;101036.87;1774391;81;21044;-59
2022/05/05 01:40:19;;;;;;;2.17;1.12;;;;;;;7.49;41.33;101038.93;1774488;79;20996;-60
2022/05/05 01:42:48;;;;;;;3.22;1.05;;;;;;;7.47;41.62;101032.78;1774479;81;21062;-60
2022/05/05 01:45:18;;;;;;;1.87;0.95;;;;;;;7.46;41.41;101036.53;1774472;81;21502;-60
2022/05/05 01:47:48;;;;;;;3.33;1.10;;;;;;;7.48;41.33;101038.58;1774404;81;21016;-59
2022/05/05 01:50:16;;;;;;;2.95;0.98;;;;;;;7.46;41.36;101032.44;1774651;80;21060;-62
2022/05/05 01:52:47;;;;;;;2.40;1.00;;;;;;;7.42;41.91;101036.00;1774771;81;21425;-59
2022/05/05 01:55:16;;;;;;;2.27;0.80;;;;;;;7.36;41.70;101035.28;1763987;81;21024;-57
2022/05/05 01:57:45;;;;;;;1.47;0.72;;;;;;;7.35;41.75;101036.30;1774377;81;21059;-58
2022/05/05 02:00:15;;;;;;;1.85;0.93;;;;;;;7.33;41.78;101037.47;1774469;81;21032;-58
2022/05/05 02:02:47;;;;;;;7.10;1.35;;;;;;;7.31;41.79;101045.30;1774633;81;21051;-58
2022/05/05 02:05:16;;;;;;;1.90;1.00;;;;;;;7.29;41.96;101046.48;1774540;80;21062;-60
2022/05/05 02:07:46;;;;;;;3.52;1.20;;;;;;;7.29;42.21;101052.79;1774457;81;21016;-60
2022/05/05 02:10:17;;;;;;;1.90;1.05;;;;;;;7.26;41.96;101053.11;1774501;81;21048;-59
2022/05/05 02:12:46;;;;;;;4.03;1.57;;;;;;;7.24;42.23;101059.23;1774622;81;20981;-60
2022/05/05 02:15:15;;;;;;;2.83;1.15;;;;;;;7.22;42.50;101055.81;1774582;81;20973;-60
2022/05/05 02:17:45;;;;;;;4.53;0.98;;;;;;;7.21;42.31;101060.06;1774720;81;21067;-62
2022/05/05 02:20:15;;;;;;;1.92;1.20;;;;;;;7.16;42.50;101064.63;1774430;81;21044;-59
2022/05/05 02:22:46;;;;;;;2.08;0.90;;;;;;;7.11;42.33;101060.64;1774431;81;20973;-59
2022/05/05 02:25:15;;;;;;;3.45;1.10;;;;;;;7.11;42.36;101060.13;1774385;81;21471;-59
2022/05/05 02:27:50;;;;;;;2.45;0.82;;;;;;;7.12;42.45;101072.73;1774745;79;21083;-59
2022/05/05 02:30:20;;;;;;;1.72;0.82;;;;;;;7.13;42.34;101075.81;1774537;81;20980;-59
2022/05/05 02:32:51;;;;;;;2.50;1.27;;;;;;;7.11;42.51;101079.20;1774397;81;21079;-59
2022/05/05 02:35:19;;;;;;;1.90;1.10;;;;;;;7.09;42.45;101079.02;1775676;80;20973;-58
2022/05/05 02:40:39;;;;;;;3.65;1.25;;;;;;;7.12;42.43;101088.23;1788221;80;21513;-59
2022/05/05 02:43:09;;;;;;;1.67;0.93;;;;;;;7.13;42.33;101092.16;1788250;80;21063;-57
2022/05/05 02:45:39;;;;;;;2.02;1.00;;;;;;;7.14;42.28;101088.42;1788200;80;21000;-57
2022/05/05 02:48:09;;;;;;;2.10;1.00;;;;;;;7.17;42.13;101090.86;1788145;80;21023;-58
2022/05/05 02:50:38;;;;;;;2.17;1.20;;;;;;;7.18;42.18;101096.66;1788195;80;21505;-58
2022/05/05 02:55:56;;;;;;;2.62;1.25;;;;;;;7.12;42.30;101101.86;1788598;79;21146;-59
2022/05/05 02:58:28;;;;;;;3.65;1.07;;;;;;;7.11;42.28;101098.78;1788133;80;21035;-59
2022/05/05 03:00:56;;;;;;;4.05;1.67;;;;;;;7.07;42.25;101095.52;1787986;80;21008;-59
2022/05/05 03:03:25;;;;;;;2.85;1.25;;;;;;;7.08;42.42;101106.77;1788182;80;21011;-59
2022/05/05 03:05:56;;;;;;;3.25;1.20;;;;;;;7.06;42.66;101105.22;1788263;80;21020;-59
2022/05/05 03:08:24;;;;;;;4.12;1.10;;;;;;;7.03;42.46;101109.11;1788242;80;21043;-59
2022/05/05 03:10:53;;;;;;;3.87;1.30;;;;;;;7.00;42.62;101109.42;1788471;80;21003;-59
2022/05/05 03:13:22;;;;;;;3.98;1.70;;;;;;;6.98;42.64;101116.91;1788275;80;21035;-59
2022/05/05 03:15:51;;;;;;;5.42;1.50;;;;;;;6.98;42.50;101112.81;1788083;80;21075;-57
2022/05/05 03:18:21;;;;;;;2.17;1.02;;;;;;;6.97;42.58;101117.41;1788315;80;21019;-59
2022/05/05 03:20:50;;;;;;;2.70;1.67;;;;;;;6.98;42.68;101119.12;1788060;80;21003;-59
2022/05/05 03:23:19;;;;;;;3.33;1.27;;;;;;;6.97;42.77;101121.49;1788402;80;21011;-59
2022/05/05 03:25:48;;;;;;;2.67;1.27;;;;;;;6.97;42.53;101121.49;1788293;80;21416;-61
2022/05/05 03:28:17;;;;;;;2.35;1.35;;;;;;;6.99;42.60;101129.00;1788220;80;21007;-60
2022/05/05 03:30:46;;;;;;;2.10;1.02;;;;;;;7.02;42.50;101125.62;1788289;80;21055;-59
2022/05/05 03:33:15;;;;;;;3.70;1.50;;;;;;;7.01;42.51;101123.40;1788038;80;21102;-59
2022/05/05 03:35:44;;;;;;;2.33;1.32;;;;;;;7.00;42.64;101132.08;1705771;84;21035;-60
2022/05/05 03:38:12;;;;;;;5.35;1.42;;;;;;;7.03;42.62;101136.86;1699487;84;21084;-60
2022/05/05 03:40:45;;;;;;;3.33;1.30;;;;;;;7.05;42.58;101143.88;1699528;84;21055;-58
2022/05/05 03:43:13;;;;;;;2.12;1.10;;;;;;;7.05;42.52;101146.59;1699396;84;21492;-59
2022/05/05 03:45:43;;;;;;;2.87;1.15;;;;;;;7.06;42.59;101150.17;1699631;84;21039;-57
2022/05/05 03:48:12;;;;;;;2.58;1.40;;;;;;;7.03;42.91;101146.41;1699631;84;21039;-58
2022/05/05 03:50:43;;;;;;;3.65;1.40;;;;;;;7.04;42.74;101157.66;1699348;84;21143;-59
2022/05/05 03:53:12;;;;;;;2.45;1.10;;;;;;;7.04;42.82;101155.78;1699483;84;21202;-58
2022/05/05 03:55:42;;;;;;;3.85;1.32;;;;;;;7.11;42.53;101154.14;1699551;84;21064;-58
2022/05/05 03:58:11;;;;;;;3.12;1.40;;;;;;;7.10;42.51;101161.97;1699446;84;21043;-58
2022/05/05 04:00:40;;;;;;;1.75;1.30;;;;;;;7.10;42.59;101167.42;1752235;80;21016;-59
2022/05/05 04:04:10;;;;;;;5.28;1.12;;;;;;;7.20;42.53;101168.73;1782761;80;21580;-63
2022/05/05 04:05:49;;;;;;;3.22;1.47;;;;;;;7.25;42.50;101168.61;1767605;80;21432;-58
2022/05/05 04:08:19;;;;;;;6.10;1.52;;;;;;;7.30;42.28;101166.77;1782810;79;21008;-60
2022/05/05 04:10:48;;;;;;;2.70;1.20;;;;;;;7.35;42.28;101175.33;1782633;80;21020;-59
2022/05/05 04:13:18;;;;;;;5.67;1.72;;;;;;;7.39;42.19;101176.73;1782716;80;21024;-59
2022/05/05 04:15:48;;;;;;;3.55;1.30;;;;;;;7.44;42.28;101183.92;1782712;80;21444;-59
2022/05/05 04:18:17;;;;;;;3.30;1.40;;;;;;;7.46;42.14;101181.89;1782692;80;21071;-58
2022/05/05 04:20:47;;;;;;;2.08;1.30;;;;;;;7.47;42.03;101179.52;1782849;80;21447;-60
2022/05/05 04:23:18;;;;;;;3.83;1.30;;;;;;;7.49;42.22;101173.91;1783096;80;21071;-59
2022/05/05 04:25:49;;;;;;;3.65;1.70;;;;;;;7.50;42.27;101184.66;1779883;80;21408;-59
2022/05/05 04:28:18;;;;;;;4.30;1.40;;;;;;;7.54;42.20;101178.38;1782629;79;21012;-60
2022/05/05 04:30:48;;;;;;;4.50;1.50;;;;;;;7.58;42.05;101180.62;1782720;80;21015;-59
2022/05/05 04:33:18;;;;;;;2.75;1.07;;;;;;;7.59;42.01;101183.70;1782721;80;21089;-58
2022/05/05 04:35:47;;;;;;;2.00;1.32;;;;;;;7.60;41.87;101184.55;1783099;80;21016;-59
2022/05/05 04:38:16;;;;;;;3.05;1.25;;;;;;;7.63;41.98;101187.81;1788195;80;21126;-59
2022/05/05 04:40:46;;;;;;;2.33;1.22;;;;;;;7.67;42.12;101186.99;1788350;80;21047;-60
2022/05/05 04:43:15;;;;;;;5.12;1.50;;;;;;;7.68;41.82;101181.88;1788246;80;21490;-59
2022/05/05 04:45:43;;;;;;;2.30;1.40;;;;;;;7.74;42.25;101183.12;1788233;80;20999;-60
2022/05/05 04:48:13;;;;;;;4.30;1.27;;;;;;;7.82;41.79;101187.30;1788356;80;21043;-60
2022/05/05 04:50:43;;;;;;;3.20;1.45;;;;;;;7.88;41.89;101194.84;1788227;80;21046;-59
2022/05/05 04:53:11;;;;;;;4.90;1.42;;;;;;;7.95;41.85;101191.30;1788284;80;21063;-61
2022/05/05 04:55:41;;;;;;;3.00;1.30;;;;;;;8.05;41.69;101194.42;1788404;80;20972;-58
2022/05/05 04:58:10;;;;;;;5.08;1.37;;;;;;;8.12;41.49;101191.39;1788143;80;21464;-61
2022/05/05 05:00:39;;;;;;;2.60;1.30;;;;;;;8.20;41.56;101195.53;1788264;80;21004;-59
2022/05/05 05:03:32;;;;;;;3.15;1.37;;;;;;;8.30;41.43;101198.13;1788133;80;21055;-60
2022/05/05 05:05:41;;;;;;;4.10;1.47;;;;;;;8.38;41.39;101202.30;1786038;80;21011;-61
2022/05/05 05:08:10;;;;;;;3.33;1.32;;;;;;;8.44;40.73;101194.81;1788039;80;21501;-59
2022/05/05 05:10:38;;;;;;;2.10;1.20;;;;;;;8.52;40.67;101201.20;1788167;80;21047;-60
2022/05/05 05:13:08;;;;;;;9.15;3.00;;;;;;;8.63;40.77;101205.51;1788307;80;21438;-60
2022/05/05 05:15:37;;;;;;;4.22;1.60;;;;;;;8.72;40.49;101200.41;1788242;80;21027;-62
2022/05/05 05:18:07;;;;;;;10.43;2.20;;;;;;;8.81;40.30;101204.02;1788473;79;21032;-59
2022/05/05 05:20:36;;;;;;;5.33;1.70;;;;;;;8.92;40.17;101214.64;1788240;80;20972;-59
2022/05/05 05:23:05;;;;;;;2.40;1.10;;;;;;;9.06;39.70;101218.09;1788335;80;21086;-60
2022/05/05 05:25:35;;;;;;;4.30;1.65;;;;;;;9.36;39.21;101206.19;1788568;80;21402;-60
2022/05/05 05:28:06;;;;;;;4.28;1.50;;;;;;;9.69;38.64;101207.89;1788228;80;21015;-59
2022/05/05 05:30:37;;;;;;;3.77;1.40;;;;;;;9.96;37.95;101209.43;1787948;80;21016;-59
2022/05/05 05:33:08;;;;;;;4.28;1.70;;;;;;;10.04;37.52;101217.63;1788102;80;20996;-60
2022/05/05 05:35:36;;;;;;;5.40;1.95;;;;;;;10.01;37.67;101209.77;1788265;80;20996;-59
2022/05/05 05:38:05;;;;;;;6.10;1.70;;;;;;;9.98;37.20;101219.70;1788016;80;21040;-59
2022/05/05 05:40:35;;;;;;;4.83;1.60;;;;;;;9.81;37.28;101210.66;1788311;80;21446;-60
2022/05/05 05:43:04;;;;;;;7.45;1.62;;;;;;;9.72;37.68;101214.91;1788247;80;21035;-59
2022/05/05 05:45:35;;;;;;;3.05;1.55;;;;;;;9.68;37.87;101217.13;1788155;80;21043;-60
2022/05/05 05:48:06;;;;;;;4.03;1.60;;;;;;;9.66;37.87;101213.71;1788238;80;21474;-59
2022/05/05 05:50:35;;;;;;;4.62;1.67;;;;;;;9.68;38.01;101225.34;1788279;80;21058;-60
2022/05/05 05:53:04;;;;;;;5.00;1.87;;;;;;;9.70;37.73;101219.19;1788189;80;21004;-59
2022/05/05 05:55:33;;;;;;;4.80;1.70;;;;;;;9.65;37.61;101220.22;1788221;80;21111;-60
2022/05/05 05:58:03;;;;;;;4.55;1.42;;;;;;;9.59;37.74;101220.90;1788236;80;20980;-59
2022/05/05 06:00:33;;;;;;;3.45;1.40;;;;;;;9.55;37.90;101222.27;1788097;79;21515;-61
2022/05/05 06:05:51;;;;;;;4.25;1.50;;;;;;;9.57;37.80;101227.56;1788318;80;21059;-59
2022/05/05 06:08:20;;;;;;;5.30;1.40;;;;;;;9.50;38.07;101233.72;1788324;80;21004;-61
2022/05/05 06:10:50;;;;;;;7.50;1.37;;;;;;;9.47;37.80;101229.11;1788069;79;21023;-60
2022/05/05 06:13:31;;;;;;;3.35;1.20;;;;;;;9.42;37.97;101230.98;1788198;80;21470;-60
2022/05/05 06:16:01;;;;;;;5.83;1.60;;;;;;;9.42;38.09;101235.09;1788402;80;21591;-60
2022/05/05 06:18:30;;;;;;;5.58;1.57;;;;;;;9.47;38.27;101229.96;1788339;80;21082;-59
2022/05/05 06:20:59;;;;;;;2.47;0.93;;;;;;;9.54;38.29;101231.50;1787910;79;21012;-61
2022/05/05 06:23:28;;;;;;;3.55;1.45;;;;;;;9.72;37.99;101226.70;1788141;80;21016;-60
2022/05/05 06:25:57;;;;;;;4.35;1.30;;;;;;;10.04;37.56;101230.46;1788355;80;21007;-59
2022/05/05 06:28:26;;;;;;;5.78;1.75;;;;;;;10.46;37.08;101228.36;1788303;80;21051;-60
2022/05/05 06:30:56;;;;;;;4.42;1.50;;;;;;;11.15;36.03;101229.06;1788058;80;21024;-61
2022/05/05 06:33:25;;;;;;;4.45;1.40;;;;;;;11.68;35.14;101223.52;1788193;80;21015;-59
2022/05/05 06:35:56;;;;;;;3.65;1.30;;;;;;;12.15;33.63;101236.70;1788408;80;20996;-59
2022/05/05 06:38:25;;;;;;;3.27;1.30;;;;;;;12.61;32.94;101236.87;1764294;81;21135;-60
2022/05/05 06:40:54;;;;;;;3.00;1.30;;;;;;;13.09;31.82;101237.83;1774416;80;21048;-60
2022/05/05 06:43:24;;;;;;;8.25;1.65;;;;;;;13.40;30.99;101236.19;1774466;81;21024;-64
2022/05/05 06:45:54;;;;;;;3.98;1.22;;;;;;;13.51;31.10;101226.89;1774470;81;21024;-58
2022/05/05 06:48:23;;;;;;;2.10;1.20;;;;;;;13.82;30.83;101242.24;1774420;81;21039;-62
2022/05/05 06:50:52;;;;;;;4.30;1.30;;;;;;;14.11;29.27;101236.55;1774427;81;21091;-60
2022/05/05 06:53:21;;;;;;;4.00;1.07;;;;;;;14.33;29.00;101244.79;1774491;81;21024;-60
2022/05/05 06:55:49;;;;;;;9.45;1.60;;;;;;;14.70;27.80;101242.18;1774663;81;21032;-59
2022/05/05 06:58:19;;;;;;;3.45;1.30;;;;;;;14.91;27.79;101242.92;1774282;80;21494;-60
2022/05/05 07:03:35;;;;;;;;;;;;;;;15.32;26.66;101240.65;1777208;81;21056;-60
2022/05/05 07:06:05;;;;;;;4.08;1.30;;;;;;;15.55;26.38;101243.03;1774427;81;20490;-60
2022/05/05 07:11:23;;;;;;;5.80;1.55;;;;;;;16.12;25.41;101243.87;1774644;81;21004;-59
2022/05/05 07:13:52;;;;;;;2.75;1.30;;;;;;;16.34;25.01;101245.91;1774589;81;21028;-61
2022/05/05 07:16:23;;;;;;;2.70;1.20;;;;;;;16.59;24.97;101248.83;1774376;81;21008;-60
2022/05/05 07:18:52;;;;;;;3.58;1.40;;;;;;;16.84;24.54;101249.54;1774604;79;21032;-59
2022/05/05 07:21:22;;;;;;;2.50;1.15;;;;;;;16.95;23.97;101240.59;1774404;80;21012;-59
2022/05/05 07:23:51;;;;;;;2.27;1.30;;;;;;;17.13;24.05;101250.41;1774430;81;21020;-59
2022/05/05 07:26:20;;;;;;;3.92;1.40;;;;;;;17.31;23.49;101250.53;1774675;81;21024;-59
2022/05/05 07:28:49;;;;;;;2.52;1.40;;;;;;;17.10;23.81;101245.31;1774717;80;21032;-60
2022/05/05 07:31:18;;;;;;;2.47;1.40;;;;;;;17.07;23.83;101253.52;1774342;81;21016;-62
2022/05/05 07:33:47;;;;;;;1.70;1.22;;;;;;;17.21;23.58;101250.69;1774311;81;21655;-61
2022/05/05 07:36:16;;;;;;;1.87;1.40;;;;;;;17.17;23.06;101254.44;1774520;81;20996;-60
2022/05/05 07:38:45;;;;;;;4.53;1.50;;;;;;;17.01;23.35;101252.17;1786033;79;21023;-60
2022/05/05 07:41:15;;;;;;;2.40;1.50;;;;;;;17.06;23.60;101257.89;1788196;80;21047;-60
2022/05/05 07:43:44;;;;;;;4.85;1.50;;;;;;;17.42;23.10;101258.67;1788153;80;21094;-60
2022/05/05 07:46:16;;;;;;;1.85;1.30;;;;;;;17.62;22.47;101253.04;1786351;79;21080;-61
2022/05/05 07:48:45;;;;;;;2.05;1.35;;;;;;;17.61;22.73;101256.88;1786669;79;21035;-60
2022/05/05 07:51:15;;;;;;;3.45;1.47;;;;;;;17.73;22.21;101255.97;1803953;79;21039;-60
2022/05/05 07:54:34;;;;;;;4.33;1.20;;;;;;;17.65;22.88;101258.13;1738909;82;21432;-60
2022/05/05 07:56:15;;;;;;;2.77;1.25;;;;;;;17.70;22.95;101245.88;1742988;82;21519;-60
2022/05/05 07:58:46;;;;;;;5.92;1.50;;;;;;;17.75;22.79;101244.66;1706885;83;21080;-62
2022/05/05 08:01:22;;;;;;;5.90;1.42;;;;;;;17.88;22.93;101241.78;1733415;83;21016;-60
2022/05/05 08:03:52;;;;;;;3.75;1.70;;;;;;;18.10;22.46;101244.17;1702083;83;21048;-60
2022/05/05 08:06:21;;;;;;;2.42;1.60;;;;;;;18.23;22.01;101244.93;1730496;83;21054;-59
2022/05/05 08:08:50;;;;;;;3.33;1.50;;;;;;;18.25;22.13;101241.92;1730214;83;21363;-63
2022/05/05 08:11:19;;;;;;;3.02;1.47;;;;;;;18.31;22.10;101237.70;1730261;83;21027;-62
2022/05/05 08:13:49;;;;;;;4.75;1.60;;;;;;;18.45;21.97;101239.80;1730259;83;21079;-59
2022/05/05 08:16:19;;;;;;;4.95;1.98;;;;;;;18.32;21.78;101241.33;1730246;83;21026;-60
2022/05/05 08:18:49;;;;;;;2.85;1.50;;;;;;;18.19;22.08;101245.04;1730411;83;21444;-62
2022/05/05 08:21:18;;;;;;;2.77;1.37;;;;;;;18.29;21.97;101237.08;1730209;83;21066;-59
2022/05/05 08:23:47;;;;;;;2.10;1.30;;;;;;;18.37;22.12;101233.16;1757991;81;21017;-59
2022/05/05 08:29:05;;;;;;;3.60;1.37;;;;;;;18.62;21.99;101239.55;1760124;81;21027;-60
2022/05/05 08:31:34;;;;;;;2.85;1.30;;;;;;;18.73;21.93;101239.86;1760862;81;21059;-61
2022/05/05 08:34:04;;;;;;;3.62;1.45;;;;;;;18.80;21.08;101226.75;1760169;81;21054;-61
2022/05/05 08:36:35;;;;;;;8.75;1.75;;;;;;;18.73;21.30;101235.16;1760299;81;21051;-61
2022/05/05 08:39:05;;;;;;;4.28;1.45;;;;;;;18.76;21.56;101235.23;1748283;81;21103;-60
2022/05/05 08:41:34;;;;;;;3.35;1.70;;;;;;;18.88;21.14;101229.24;1805931;79;21059;-62
2022/05/05 08:44:04;;;;;;;2.45;1.62;;;;;;;18.76;21.25;101236.62;1805851;79;21082;-60
2022/05/05 08:46:34;;;;;;;2.08;1.30;;;;;;;18.74;21.10;101231.84;1805739;79;21004;-62
2022/05/05 08:49:07;;;;;;;2.83;1.50;;;;;;;18.69;21.11;101225.05;1789724;79;21400;-59
2022/05/05 08:51:46;;;;;;;2.75;1.82;;;;;;;18.82;21.31;101227.36;1774251;81;21023;-60
2022/05/05 08:54:27;;;;;;;6.30;1.90;;;;;;;19.06;20.96;101222.28;1774264;81;21031;-60
2022/05/05 08:56:56;;;;;;;2.27;1.20;;;;;;;18.94;20.69;101231.09;1724570;82;21048;-64
2022/05/05 08:59:25;;;;;;;4.42;1.40;;;;;;;18.72;21.22;101223.73;1805917;79;21075;-60
2022/05/05 09:01:54;;;;;;;3.10;1.10;;;;;;;18.61;21.27;101229.52;1805976;79;21299;-60
2022/05/05 09:04:26;;;;;;;3.92;1.52;;;;;;;18.52;20.95;101229.48;1806165;79;21000;-62
2022/05/05 09:06:55;;;;;;;2.95;1.40;;;;;;;18.40;20.98;101234.09;1806045;79;21078;-63
2022/05/05 09:09:37;;;;;;;2.47;1.30;;;;;;;18.17;20.84;101232.47;1805925;79;21024;-59
2022/05/05 09:12:15;;;;;;;2.65;1.27;;;;;;;17.82;21.08;101227.44;1806399;79;21039;-61
2022/05/05 09:14:55;;;;;;;4.65;1.27;;;;;;;17.52;21.43;101228.55;1806043;79;21035;-61
2022/05/05 09:17:28;;;;;;;2.12;1.20;;;;;;;17.40;21.87;101229.80;1806036;79;21486;-60
2022/05/05 09:19:57;;;;;;;3.90;1.70;;;;;;;17.37;21.75;101228.86;1806057;79;21036;-60
2022/05/05 09:22:28;;;;;;;3.02;1.37;;;;;;;17.21;22.04;101239.08;1806057;79;21424;-61
2022/05/05 09:24:57;;;;;;;3.02;1.50;;;;;;;17.03;22.15;101234.80;1805985;79;21440;-60
2022/05/05 09:27:34;;;;;;;4.92;1.17;;;;;;;16.72;22.54;101230.84;1784755;79;21005;-61
2022/05/05 09:30:12;;;;;;;2.67;1.30;;;;;;;16.52;22.68;101221.72;1774295;81;21012;-60
2022/05/05 09:32:46;;;;;;;3.72;1.30;;;;;;;16.45;22.79;101219.50;1774430;79;21071;-60
2022/05/05 09:35:16;;;;;;;3.47;1.70;;;;;;;16.37;23.19;101216.44;1774367;80;21488;-60
2022/05/05 09:37:49;;;;;;;15.38;2.90;;;;;;;16.36;23.00;101226.33;1776430;80;21054;-65
2022/05/05 09:40:24;;;;;;;5.08;1.52;;;;;;;16.18;23.28;101215.91;1787979;80;21436;-60
2022/05/05 09:42:54;;;;;;;4.60;1.37;;;;;;;16.17;23.33;101215.05;1788017;80;21447;-64
2022/05/05 09:45:32;;;;;;;2.50;1.27;;;;;;;16.18;23.43;101218.67;1787969;80;21015;-60
2022/05/05 09:48:02;;;;;;;4.28;1.40;;;;;;;16.13;23.41;101216.55;1788171;80;21012;-59
2022/05/05 09:50:34;;;;;;;3.52;1.30;;;;;;;16.03;23.33;101220.81;1787957;79;21432;-60
2022/05/05 09:58:39;;;;;;;3.50;1.20;;;;;;;15.93;23.78;101217.63;1788179;79;21024;-58
2022/05/05 10:01:09;;;;;;;3.37;1.10;;;;;;;15.99;23.54;101220.38;1787995;80;21411;-60
2022/05/05 10:04:06;;;;;;;2.50;1.20;;;;;;;15.99;23.33;101219.00;1787958;80;20992;-62
2022/05/05 10:06:39;;;;;;;5.17;1.42;;;;;;;15.85;23.53;101220.92;1788055;79;21055;-60
2022/05/05 10:09:10;;;;;;;4.17;1.47;;;;;;;15.75;23.71;101219.64;1787986;80;21489;-60
2022/05/05 10:11:40;;;;;;;1.30;1.00;;;;;;;15.69;23.86;101217.72;1788209;80;21035;-61
2022/05/05 10:14:11;;;;;;;3.58;1.20;;;;;;;15.63;23.81;101221.33;1787951;79;20996;-60
2022/05/05 10:16:42;;;;;;;1.37;0.90;;;;;;;15.53;23.60;101226.67;1788213;80;20976;-60
2022/05/05 10:19:12;;;;;;;1.57;1.00;;;;;;;15.31;23.77;101218.77;1788099;80;20984;-63
2022/05/05 10:22:10;;;;;;;7.58;1.30;;;;;;;15.19;23.97;101213.86;1788061;80;21008;-61
2022/05/05 10:24:53;;;;;;;1.80;1.12;;;;;;;15.18;23.94;101216.83;1787837;80;21074;-59
2022/05/05 10:27:24;;;;;;;3.98;1.20;;;;;;;15.22;24.01;101213.97;1788019;80;21040;-58
2022/05/05 10:29:54;;;;;;;4.42;1.10;;;;;;;15.26;24.32;101207.50;1787914;80;21071;-60
2022/05/05 10:32:28;;;;;;;2.17;1.00;;;;;;;15.40;24.89;101214.22;1788068;80;21012;-63
2022/05/05 10:35:18;;;;;;;3.75;1.47;;;;;;;15.58;23.76;101212.27;1787885;79;21020;-62
2022/05/05 10:37:48;;;;;;;2.00;1.15;;;;;;;15.53;23.47;101199.58;1788122;80;21004;-61
2022/05/05 10:40:17;;;;;;;3.42;0.90;;;;;;;15.52;23.60;101204.78;1788002;80;21067;-61
2022/05/05 10:42:51;;;;;;;2.52;1.10;;;;;;;15.45;23.37;101206.16;1788086;80;21075;-65
2022/05/05 10:45:32;;;;;;;2.70;1.50;;;;;;;15.40;23.43;101206.47;1788016;79;21031;-61
2022/05/05 10:48:08;;;;;;;5.92;1.50;;;;;;;15.29;23.36;101207.08;1788244;79;21408;-59
2022/05/05 10:50:49;;;;;;;3.77;1.85;;;;;;;15.25;23.81;101197.52;1788250;80;20971;-60
2022/05/05 10:53:45;;;;;;;3.52;1.35;;;;;;;15.36;23.87;101193.61;1801998;79;21016;-59
2022/05/05 10:56:29;;;;;;;2.40;1.30;;;;;;;15.48;23.60;101197.98;1806664;79;21051;-61
2022/05/05 10:59:08;;;;;;;3.10;1.25;;;;;;;15.58;23.71;101200.36;1788114;80;20980;-60
2022/05/05 11:01:56;;;;;;;1.32;0.90;;;;;;;15.62;23.77;101201.67;1788186;80;21016;-59
2022/05/05 11:04:31;;;;;;;2.83;1.17;;;;;;;15.68;23.94;101198.06;1788232;79;21086;-64
2022/05/05 11:07:25;;;;;;;2.75;0.90;;;;;;;15.62;23.53;101191.47;1787877;80;21058;-60
2022/05/05 11:09:56;;;;;;;1.95;0.95;;;;;;;15.50;23.61;101192.56;1788068;80;21059;-59
2022/05/05 11:12:33;;;;;;;3.70;1.20;;;;;;;15.41;23.42;101188.30;1770803;80;21063;-62
2022/05/05 11:23:50;;;;;;;2.58;1.00;;;;;;;15.60;23.97;101189.95;1788045;80;21003;-61
2022/05/05 11:26:22;;;;;;;3.27;1.40;;;;;;;15.61;23.71;101187.01;1788140;80;21007;-63
2022/05/05 11:28:53;;;;;;;3.75;1.20;;;;;;;15.47;23.97;101183.32;1788046;80;21189;-62
2022/05/05 11:31:31;;;;;;;7.67;1.32;;;;;;;15.39;24.29;101184.91;1787868;80;21130;-61
2022/05/05 11:34:03;;;;;;;2.90;1.00;;;;;;;15.40;24.44;101176.94;1787997;80;21019;-59
2022/05/05 11:36:34;;;;;;;3.33;1.40;;;;;;;15.44;24.29;101174.08;1787989;79;21047;-59
2022/05/05 11:39:04;;;;;;;1.95;1.10;;;;;;;15.46;24.57;101180.23;1787953;79;21147;-61
2022/05/05 11:41:35;;;;;;;1.98;1.10;;;;;;;15.49;23.92;101170.15;1788143;80;21031;-62
2022/05/05 11:44:20;;;;;;;2.30;1.20;;;;;;;15.44;24.05;101172.70;1788067;79;21599;-59
2022/05/05 11:46:50;;;;;;;3.15;1.10;;;;;;;15.44;24.55;101164.41;1788022;80;20996;-59
2022/05/05 11:49:20;;;;;;;2.83;1.30;;;;;;;15.49;24.08;101170.68;1788050;79;21432;-60
2022/05/05 11:51:51;;;;;;;2.77;1.10;;;;;;;15.48;23.60;101169.83;1787891;80;21019;-59
2022/05/05 11:54:32;;;;;;;2.65;1.05;;;;;;;15.43;23.40;101177.90;1793540;79;21051;-64
2022/05/05 11:57:01;;;;;;;2.60;1.80;;;;;;;15.33;23.74;101178.84;1791923;79;21003;-61
2022/05/05 12:02:22;;;;;;;2.87;1.00;;;;;;;15.41;23.70;101160.69;1794876;79;20972;-60
2022/05/05 12:04:55;;;;;;;2.35;1.00;;;;;;;15.38;23.37;101163.88;1640131;87;21550;-58
2022/05/05 12:07:27;;;;;;;3.77;1.10;;;;;;;15.39;23.13;101162.81;1703874;84;21015;-60
2022/05/05 12:09:58;;;;;;;6.10;1.30;;;;;;;15.39;22.86;101161.43;1619005;87;21115;-60
2022/05/05 12:12:30;;;;;;;3.30;1.12;;;;;;;15.37;22.92;101152.51;1639078;87;21045;-60
2022/05/05 12:15:05;;;;;;;5.42;1.10;;;;;;;15.39;22.86;101149.00;1703677;84;21479;-62
2022/05/05 12:17:41;;;;;;;3.05;1.20;;;;;;;15.41;23.11;101148.79;1640533;87;21519;-59
2022/05/05 12:20:14;;;;;;;1.30;0.90;;;;;;;15.47;23.11;101145.19;1639086;87;21052;-58
2022/05/05 12:22:44;;;;;;;1.45;0.90;;;;;;;15.45;23.11;101134.87;1704022;84;21095;-61
2022/05/05 12:25:17;;;;;;;2.80;1.15;;;;;;;15.42;23.10;101138.06;1640664;87;21051;-59
2022/05/05 12:27:59;;;;;;;5.47;1.15;;;;;;;15.41;23.20;101142.73;1638828;87;21214;-60
2022/05/05 12:30:42;;;;;;;3.52;1.12;;;;;;;15.41;23.05;101135.83;1710360;83;21441;-59
2022/05/05 12:33:17;;;;;;;2.60;1.20;;;;;;;15.43;23.12;101143.91;1798515;80;21083;-58